createdAt,value
2022-08-22T00:00:27.875Z,101500.00
2022-08-22T00:02:42.056Z,101501.94
2022-08-22T00:02:59.525Z,101503.25
2022-08-22T00:03:03.384Z,101529.63
2022-08-22T00:03:19.116Z,101507.22
2022-08-22T00:06:11.663Z,101494.00
2022-08-22T00:08:55.596Z,101493.16
2022-08-22T00:12:03.642Z,101495.66
2022-08-22T00:14:53.468Z,101493.88
2022-08-22T00:17:38.993Z,101494.84
2022-08-22T00:20:30.522Z,101499.41
2022-08-22T00:23:18.517Z,101495.81
2022-08-22T00:26:26.492Z,101491.25
2022-08-22T00:29:31.747Z,101496.56
2022-08-22T00:32:23.789Z,101505.50
2022-08-22T00:35:20.803Z,101496.78
2022-08-22T00:38:30.555Z,101494.28
2022-08-22T00:41:16.591Z,101494.28
2022-08-22T00:44:16.056Z,101487.38
2022-08-22T00:47:25.990Z,101489.19
2022-08-22T00:50:53.819Z,101498.94
2022-08-22T00:54:00.763Z,101494.56
2022-08-22T00:57:08.162Z,101498.03
2022-08-22T01:00:05.708Z,101498.94
2022-08-22T01:03:17.535Z,101501.63
2022-08-22T01:06:24.124Z,101501.69
2022-08-22T01:09:02.526Z,101510.63
2022-08-22T01:11:52.560Z,101511.63
2022-08-22T01:14:43.171Z,101508.22
2022-08-22T01:17:37.709Z,101508.28
2022-08-22T01:20:29.439Z,101511.84
2022-08-22T01:23:46.648Z,101510.88
2022-08-22T01:26:44.842Z,101510.09
2022-08-22T01:29:36.628Z,101511.97
2022-08-22T01:33:09.258Z,101513.75
2022-08-22T01:35:56.567Z,101506.78
2022-08-22T01:38:59.221Z,101513.91
2022-08-22T01:41:47.160Z,101513.91
2022-08-22T01:44:56.789Z,101505.84
2022-08-22T01:47:36.567Z,101511.97
2022-08-22T01:50:34.919Z,101508.41
2022-08-22T01:53:18.860Z,101505.75
2022-08-22T01:56:23.099Z,101507.44
2022-08-22T01:59:14.999Z,101503.78
2022-08-22T02:02:33.139Z,101509.22
2022-08-22T02:05:26.110Z,101502.31
2022-08-22T02:08:18.039Z,101501.53
2022-08-22T02:11:11.019Z,101501.44
2022-08-22T02:13:51.054Z,101502.31
2022-08-22T02:16:41.283Z,101495.13
2022-08-22T02:19:14.458Z,101498.66
2022-08-22T02:21:58.856Z,101491.53
2022-08-22T02:24:47.741Z,101499.59
2022-08-22T02:27:46.614Z,101497.84
2022-08-22T02:30:23.383Z,101497.00
2022-08-22T02:33:21.300Z,101490.75
2022-08-22T02:36:14.359Z,101489.94
2022-08-22T02:38:56.443Z,101490.88
2022-08-22T02:41:57.019Z,101491.00
2022-08-22T02:44:36.596Z,101493.59
2022-08-22T02:47:27.861Z,101489.16
2022-08-22T02:50:34.483Z,101491.81
2022-08-22T02:53:32.363Z,101486.56
2022-08-22T02:56:22.308Z,101491.00
2022-08-22T02:59:02.727Z,101486.69
2022-08-22T03:01:33.252Z,101487.56
2022-08-22T03:04:32.369Z,101491.22
2022-08-22T03:07:11.625Z,101491.31
2022-08-22T03:09:57.494Z,101479.84
2022-08-22T03:12:57.724Z,101485.25
2022-08-22T03:15:56.772Z,101484.59
2022-08-22T03:18:44.791Z,101476.88
2022-08-22T03:21:41.188Z,101475.88
2022-08-22T03:24:17.147Z,101471.34
2022-08-22T03:27:10.447Z,101464.19
2022-08-22T03:29:46.617Z,101471.03
2022-08-22T03:32:20.639Z,101470.06
2022-08-22T03:35:05.167Z,101471.75
2022-08-22T03:37:42.109Z,101467.19
2022-08-22T03:41:01.133Z,101463.59
2022-08-22T03:44:19.101Z,101455.47
2022-08-22T03:47:16.819Z,101448.16
2022-08-22T03:50:27.461Z,101446.13
2022-08-22T03:53:19.201Z,101444.13
2022-08-22T03:56:33.444Z,101446.63
2022-08-22T03:59:25.564Z,101443.03
2022-08-22T04:02:42.817Z,101436.91
2022-08-22T04:05:40.491Z,101450.31
2022-08-22T04:08:29.297Z,101445.28
2022-08-22T04:11:24.480Z,101452.69
2022-08-22T04:14:33.188Z,101447.56
2022-08-22T04:17:41.775Z,101459.06
2022-08-22T04:21:05.579Z,101462.75
2022-08-22T04:24:10.954Z,101467.41
2022-08-22T04:27:02.233Z,101464.81
2022-08-22T04:29:53.142Z,101464.81
2022-08-22T04:32:41.155Z,101463.09
2022-08-22T04:35:25.760Z,101464.19
2022-08-22T04:38:12.354Z,101472.09
2022-08-22T04:40:48.289Z,101463.28
2022-08-22T04:43:46.783Z,101464.09
2022-08-22T04:46:33.720Z,101468.53
2022-08-22T04:49:25.933Z,101475.75
2022-08-22T04:52:40.247Z,101473.69
2022-08-22T04:55:58.298Z,101478.72
2022-08-22T04:59:11.793Z,101483.97
2022-08-22T05:01:54.406Z,101481.16
2022-08-22T05:04:35.733Z,101481.09
2022-08-22T05:07:18.334Z,101477.50
2022-08-22T05:10:09.391Z,101469.50
2022-08-22T05:12:55.439Z,101477.28
2022-08-22T05:15:35.902Z,101482.56
2022-08-22T05:18:13.411Z,101488.72
2022-08-22T05:20:47.468Z,101487.06
2022-08-22T05:23:33.607Z,101490.59
2022-08-22T05:26:06.363Z,101486.19
2022-08-22T05:28:38.519Z,101491.25
2022-08-22T05:31:15.982Z,101482.97
2022-08-22T05:33:53.010Z,101486.22
2022-08-22T05:36:26.556Z,101482.28
2022-08-22T05:39:12.030Z,101484.22
2022-08-22T05:41:41.527Z,101488.84
2022-08-22T05:44:16.430Z,101481.03
2022-08-22T05:46:52.973Z,101490.38
2022-08-22T05:49:52.473Z,101497.38
2022-08-22T05:52:54.803Z,101497.28
2022-08-22T05:55:52.716Z,101500.50
2022-08-22T05:58:38.743Z,101504.75
2022-08-22T06:01:38.654Z,101500.69
2022-08-22T06:04:21.754Z,101494.75
2022-08-22T06:07:20.548Z,101502.13
2022-08-22T06:09:47.649Z,101496.66
2022-08-22T06:12:33.295Z,101499.88
2022-08-22T06:15:23.735Z,101495.16
2022-08-22T06:18:01.096Z,101495.00
2022-08-22T06:20:36.571Z,101504.50
2022-08-22T06:23:08.063Z,101504.41
2022-08-22T06:25:40.513Z,101506.22
2022-08-22T06:28:17.170Z,101503.47
2022-08-22T06:30:47.744Z,101509.03
2022-08-22T06:33:24.962Z,101503.00
2022-08-22T06:36:25.814Z,101508.44
2022-08-22T06:39:17.301Z,101508.44
2022-08-22T06:42:11.205Z,101513.59
2022-08-22T06:45:07.987Z,101513.59
2022-08-22T06:47:50.992Z,101514.84
2022-08-22T06:50:31.111Z,101528.47
2022-08-22T06:53:08.227Z,101523.97
2022-08-22T06:55:41.396Z,101530.56
2022-08-22T06:58:32.821Z,101526.19
2022-08-22T07:01:27.572Z,101528.38
2022-08-22T07:04:03.197Z,101529.88
2022-08-22T07:06:36.935Z,101532.44
2022-08-22T07:09:06.990Z,101533.84
2022-08-22T07:11:41.610Z,101533.25
2022-08-22T07:14:14.563Z,101530.16
2022-08-22T07:16:59.600Z,101537.41
2022-08-22T07:19:36.905Z,101534.56
2022-08-22T07:22:30.721Z,101540.75
2022-08-22T07:25:16.515Z,101541.91
2022-08-22T07:28:21.066Z,101532.41
2022-08-22T07:31:26.004Z,101548.09
2022-08-22T07:34:23.213Z,101533.88
2022-08-22T07:37:03.180Z,101540.16
2022-08-22T07:39:45.726Z,101543.16
2022-08-22T07:42:30.100Z,101546.88
2022-08-22T07:45:14.339Z,101538.16
2022-08-22T07:48:25.591Z,101532.63
2022-08-22T07:50:58.866Z,101528.66
2022-08-22T07:53:48.530Z,101538.22
2022-08-22T07:56:25.578Z,101527.38
2022-08-22T07:59:12.973Z,101526.47
2022-08-22T08:01:50.403Z,101526.56
2022-08-22T08:04:24.757Z,101520.75
2022-08-22T08:06:57.638Z,101525.38
2022-08-22T08:09:30.934Z,101510.81
2022-08-22T08:12:02.542Z,101514.38
2022-08-22T08:14:32.553Z,101506.31
2022-08-22T08:17:32.321Z,101513.22
2022-08-22T08:20:09.007Z,101501.81
2022-08-22T08:22:38.600Z,101508.81
2022-08-22T08:25:08.178Z,101499.03
2022-08-22T08:27:57.169Z,101498.53
2022-08-22T08:30:44.270Z,101505.84
2022-08-22T08:33:24.756Z,101502.03
2022-08-22T08:36:05.327Z,101494.81
2022-08-22T08:38:46.694Z,101489.63
2022-08-22T08:41:47.743Z,101486.63
2022-08-22T08:44:49.420Z,101491.13
2022-08-22T08:47:52.387Z,101480.63
2022-08-22T08:50:55.077Z,101486.63
2022-08-22T08:54:09.345Z,101489.19
2022-08-22T08:56:42.779Z,101480.38
2022-08-22T09:00:06.617Z,101479.97
2022-08-22T09:02:57.469Z,101483.16
2022-08-22T09:06:05.758Z,101483.16
2022-08-22T09:09:07.404Z,101487.13
2022-08-22T09:12:07.132Z,101488.22
2022-08-22T09:14:49.671Z,101487.81
2022-08-22T09:17:38.620Z,101481.38
2022-08-22T09:20:52.268Z,101484.72
2022-08-22T09:23:49.216Z,101493.66
2022-08-22T09:27:10.740Z,101481.84
2022-08-22T09:29:57.112Z,101483.22
2022-08-22T09:32:45.499Z,101483.09
2022-08-22T09:35:46.389Z,101479.00
2022-08-22T09:38:23.399Z,101473.19
2022-08-22T09:41:44.364Z,101484.47
2022-08-22T09:44:39.799Z,101476.25
2022-08-22T09:47:32.627Z,101470.19
2022-08-22T09:50:30.767Z,101475.44
2022-08-22T09:53:21.393Z,101473.88
2022-08-22T09:56:26.030Z,101467.59
2022-08-22T09:59:18.449Z,101466.41
2022-08-22T10:01:50.574Z,101463.75
2022-08-22T10:04:58.198Z,101474.41
2022-08-22T10:07:58.653Z,101463.53
2022-08-22T10:10:54.713Z,101462.28
2022-08-22T10:14:01.402Z,101461.09
2022-08-22T10:17:08.417Z,101456.06
2022-08-22T10:19:47.069Z,101459.63
2022-08-22T10:22:34.896Z,101445.16
2022-08-22T10:25:34.500Z,101445.91
2022-08-22T10:28:16.459Z,101439.75
2022-08-22T10:31:45.033Z,101438.03
2022-08-22T10:34:45.623Z,101426.69
2022-08-22T10:37:32.668Z,101431.41
2022-08-22T10:40:46.458Z,101432.88
2022-08-22T10:44:01.493Z,101428.25
2022-08-22T10:46:52.664Z,101425.25
2022-08-22T10:49:33.653Z,101426.75
2022-08-22T10:52:15.788Z,101412.38
2022-08-22T10:55:13.431Z,101417.00
2022-08-22T10:58:22.638Z,101416.78
2022-08-22T11:01:00.375Z,101416.16
2022-08-22T11:04:28.199Z,101417.41
2022-08-22T11:07:29.551Z,101422.13
2022-08-22T11:10:15.654Z,101418.78
2022-08-22T11:13:05.656Z,101417.66
2022-08-22T11:16:04.137Z,101414.38
2022-08-22T11:19:03.038Z,101410.69
2022-08-22T11:22:38.954Z,101413.66
2022-08-22T11:25:35.783Z,101406.66
2022-08-22T11:28:31.143Z,101408.06
2022-08-22T11:31:47.133Z,101404.13
2022-08-22T11:34:42.169Z,101402.28
2022-08-22T11:37:51.275Z,101406.28
2022-08-22T11:40:57.758Z,101400.41
2022-08-22T11:44:05.647Z,101402.06
2022-08-22T11:46:43.374Z,101411.19
2022-08-22T11:49:47.032Z,101400.25
2022-08-22T11:52:37.653Z,101398.53
2022-08-22T11:55:36.881Z,101397.66
2022-08-22T11:58:22.755Z,101387.97
2022-08-22T12:01:14.773Z,101386.81
2022-08-22T12:04:15.852Z,101382.44
2022-08-22T12:06:54.561Z,101386.56
2022-08-22T12:09:42.591Z,101374.88
2022-08-22T12:13:01.242Z,101367.44
2022-08-22T12:16:03.882Z,101367.66
2022-08-22T12:18:52.924Z,101375.31
2022-08-22T12:21:40.869Z,101358.09
2022-08-22T12:24:51.282Z,101361.44
2022-08-22T12:27:28.921Z,101358.97
2022-08-22T12:30:14.999Z,101360.59
2022-08-22T12:33:13.123Z,101363.75
2022-08-22T12:36:30.275Z,101371.44
2022-08-22T12:39:16.486Z,101352.56
2022-08-22T12:42:26.201Z,101359.03
2022-08-22T12:45:33.533Z,101363.00
2022-08-22T12:48:22.211Z,101363.88
2022-08-22T12:51:24.501Z,101362.81
2022-08-22T12:54:23.587Z,101357.63
2022-08-22T12:57:24.479Z,101351.47
2022-08-22T13:00:03.163Z,101353.63
2022-08-22T13:02:39.502Z,101352.78
2022-08-22T13:05:20.019Z,101353.06
2022-08-22T13:08:04.381Z,101355.31
2022-08-22T13:11:01.994Z,101352.41
2022-08-22T13:13:36.921Z,101344.94
2022-08-22T13:16:11.576Z,101347.84
2022-08-22T13:19:07.537Z,101337.16
2022-08-22T13:21:45.059Z,101336.34
2022-08-22T13:25:15.802Z,101335.00
2022-08-22T13:28:01.166Z,101340.97
2022-08-22T13:30:37.399Z,101329.81
2022-08-22T13:33:14.476Z,101324.22
2022-08-22T13:35:55.689Z,101331.59
2022-08-22T13:38:30.036Z,101322.31
2022-08-22T13:41:01.987Z,101319.53
2022-08-22T13:43:52.371Z,101316.00
2022-08-22T13:46:28.185Z,101315.44
2022-08-22T13:49:01.204Z,101311.31
2022-08-22T13:51:45.794Z,101314.28
2022-08-22T13:54:16.410Z,101313.34
2022-08-22T13:57:00.585Z,101315.59
2022-08-22T13:59:53.739Z,101309.97
2022-08-22T14:02:58.836Z,101313.28
2022-08-22T14:05:33.771Z,101308.28
2022-08-22T14:08:21.278Z,101319.13
2022-08-22T14:11:10.468Z,101319.72
2022-08-22T14:13:52.814Z,101308.56
2022-08-22T14:16:27.115Z,101315.28
2022-08-22T14:19:14.433Z,101309.88
2022-08-22T14:21:59.568Z,101303.63
2022-08-22T14:24:45.862Z,101298.03
2022-08-22T14:27:26.930Z,101301.91
2022-08-22T14:30:20.303Z,101302.91
2022-08-22T14:32:56.904Z,101303.50
2022-08-22T14:35:40.635Z,101298.66
2022-08-22T14:38:38.269Z,101301.38
2022-08-22T14:41:15.882Z,101298.00
2022-08-22T14:44:20.112Z,101295.84
2022-08-22T14:46:59.236Z,101295.66
2022-08-22T14:49:59.219Z,101290.50
2022-08-22T14:52:44.922Z,101280.78
2022-08-22T14:55:21.198Z,101283.91
2022-08-22T14:58:15.214Z,101278.44
2022-08-22T15:00:48.046Z,101273.81
2022-08-22T15:03:20.070Z,101269.38
2022-08-22T15:06:02.485Z,101273.63
2022-08-22T15:08:34.494Z,101273.16
2022-08-22T15:11:10.864Z,101269.44
2022-08-22T15:13:49.122Z,101273.34
2022-08-22T15:16:23.250Z,101264.78
2022-08-22T15:18:52.560Z,101266.56
2022-08-22T15:21:31.382Z,101263.41
2022-08-22T15:24:09.755Z,101268.44
2022-08-22T15:26:50.192Z,101264.19
2022-08-22T15:29:26.556Z,101263.84
2022-08-22T15:32:00.995Z,101266.13
2022-08-22T15:34:45.867Z,101258.28
2022-08-22T15:37:19.107Z,101258.53
2022-08-22T15:40:30.753Z,101252.66
2022-08-22T15:43:13.119Z,101261.25
2022-08-22T15:45:43.446Z,101264.16
2022-08-22T15:48:33.630Z,101252.84
2022-08-22T15:51:13.471Z,101261.22
2022-08-22T15:53:43.529Z,101255.22
2022-08-22T15:56:22.914Z,101251.38
2022-08-22T15:59:48.148Z,101247.97
2022-08-22T16:02:39.864Z,101252.16
2022-08-22T16:05:10.339Z,101247.72
2022-08-22T16:07:47.607Z,101247.34
2022-08-22T16:10:20.484Z,101252.34
2022-08-22T16:13:34.090Z,101240.69
2022-08-22T16:16:26.046Z,101243.00
2022-08-22T16:18:53.097Z,101237.09
2022-08-22T16:21:22.870Z,101250.38
2022-08-22T16:23:49.938Z,101244.94
2022-08-22T16:26:30.726Z,101239.16
2022-08-22T16:29:29.843Z,101232.91
2022-08-22T16:32:10.930Z,101234.66
2022-08-22T16:34:37.859Z,101233.28
2022-08-22T16:37:21.494Z,101234.56
2022-08-22T16:39:58.894Z,101224.44
2022-08-22T16:42:46.350Z,101227.13
2022-08-22T16:45:30.001Z,101220.44
2022-08-22T16:48:02.315Z,101224.88
2022-08-22T16:50:40.830Z,101220.13
2022-08-22T16:53:10.002Z,101219.09
2022-08-22T16:55:47.928Z,101222.09
2022-08-22T16:58:56.523Z,101208.72
2022-08-22T17:01:48.250Z,101205.97
2022-08-22T17:04:49.281Z,101202.63
2022-08-22T17:07:42.563Z,101206.47
2022-08-22T17:10:38.452Z,101204.44
2022-08-22T17:13:41.334Z,101201.41
2022-08-22T17:16:48.789Z,101202.31
2022-08-22T17:19:35.521Z,101198.75
2022-08-22T17:22:12.614Z,101193.22
2022-08-22T17:24:54.893Z,101189.78
2022-08-22T17:27:42.632Z,101189.63
2022-08-22T17:30:39.498Z,101194.19
2022-08-22T17:33:28.670Z,101195.81
2022-08-22T17:36:27.562Z,101189.25
2022-08-22T17:39:08.034Z,101191.34
2022-08-22T17:42:10.225Z,101193.53
2022-08-22T17:45:15.378Z,101194.03
2022-08-22T17:48:22.460Z,101203.44
2022-08-22T17:51:02.523Z,101191.28
2022-08-22T17:53:41.414Z,101198.34
2022-08-22T17:56:32.740Z,101194.78
2022-08-22T17:59:06.720Z,101197.94
2022-08-22T18:01:50.128Z,101205.00
2022-08-22T18:04:31.224Z,101206.34
2022-08-22T18:07:10.479Z,101207.69
2022-08-22T18:09:49.154Z,101211.59
2022-08-22T18:13:01.315Z,101213.22
2022-08-22T18:16:01.062Z,101218.25
2022-08-22T18:18:50.300Z,101219.59
2022-08-22T18:21:42.064Z,101227.09
2022-08-22T18:24:12.333Z,101225.94
2022-08-22T18:26:58.417Z,101231.75
2022-08-22T18:29:42.781Z,101230.06
2022-08-22T18:32:25.515Z,101225.41
2022-08-22T18:35:03.785Z,101236.88
2022-08-22T18:37:30.816Z,101231.59
2022-08-22T18:40:27.443Z,101246.06
2022-08-22T18:43:23.927Z,101245.97
2022-08-22T18:45:51.027Z,101246.69
2022-08-22T18:48:59.245Z,101248.78
2022-08-22T18:51:38.251Z,101254.56
2022-08-22T18:54:06.819Z,101258.84
2022-08-22T18:56:55.719Z,101263.00
2022-08-22T18:59:54.288Z,101259.09
2022-08-22T19:03:03.608Z,101265.09
2022-08-22T19:06:01.024Z,101268.25
2022-08-22T19:08:37.114Z,101270.59
2022-08-22T19:11:35.084Z,101267.53
2022-08-22T19:14:25.204Z,101273.63
2022-08-22T19:17:15.038Z,101273.25
2022-08-22T19:20:12.675Z,101278.25
2022-08-22T19:22:40.736Z,101283.97
2022-08-22T19:25:10.791Z,101286.91
2022-08-22T19:27:59.365Z,101280.91
2022-08-22T19:30:47.426Z,101281.97
2022-08-22T19:33:39.548Z,101290.13
2022-08-22T19:36:30.697Z,101292.09
2022-08-22T19:39:02.292Z,101288.81
2022-08-22T19:41:52.338Z,101283.66
2022-08-22T19:44:19.367Z,101283.03
2022-08-22T19:47:18.022Z,101283.25
2022-08-22T19:50:01.476Z,101290.56
2022-08-22T19:53:03.196Z,101288.38
2022-08-22T19:55:37.269Z,101284.94
2022-08-22T19:58:32.849Z,101291.63
2022-08-22T20:01:28.154Z,101283.16
2022-08-22T20:04:10.106Z,101275.44
2022-08-22T20:07:00.411Z,101282.53
2022-08-22T20:09:45.427Z,101279.97
2022-08-22T20:12:34.883Z,101284.59
2022-08-22T20:15:25.859Z,101274.06
2022-08-22T20:21:00.121Z,101285.56
2022-08-22T20:23:32.530Z,101276.75
2022-08-22T20:26:00.760Z,101283.97
2022-08-22T20:28:49.763Z,101278.47
2022-08-22T20:31:37.372Z,101278.69
2022-08-22T20:34:15.865Z,101280.66
2022-08-22T20:36:55.967Z,101281.72
2022-08-22T20:39:58.697Z,101275.72
2022-08-22T20:42:33.802Z,101270.81
2022-08-22T20:45:11.133Z,101271.25
2022-08-22T20:47:40.863Z,101270.72
2022-08-22T20:50:12.006Z,101267.75
2022-08-22T20:52:51.828Z,101267.34
2022-08-22T20:55:31.611Z,101261.44
2022-08-22T20:58:06.180Z,101267.13
2022-08-22T21:00:42.092Z,101270.16
2022-08-22T21:03:24.474Z,101266.00
2022-08-22T21:05:51.776Z,101267.09
2022-08-22T21:08:24.715Z,101256.78
2022-08-22T21:11:23.372Z,101258.00
2022-08-22T21:13:51.975Z,101265.50
2022-08-22T21:16:33.348Z,101254.25
2022-08-22T21:19:04.187Z,101264.31
2022-08-22T21:21:35.371Z,101259.19
2022-08-22T21:24:07.280Z,101263.91
2022-08-22T21:26:46.256Z,101263.16
2022-08-22T21:29:13.228Z,101261.56
2022-08-22T21:31:52.658Z,101270.47
2022-08-22T21:34:30.655Z,101269.81
2022-08-22T21:37:22.279Z,101263.69
2022-08-22T21:40:19.087Z,101260.25
2022-08-22T21:43:05.176Z,101264.00
2022-08-22T21:45:44.695Z,101267.75
2022-08-22T21:48:39.392Z,101269.69
2022-08-22T21:51:45.637Z,101260.03
2022-08-22T21:54:24.723Z,101263.69
2022-08-22T21:57:09.999Z,101262.91
2022-08-22T21:59:51.683Z,101258.63
2022-08-22T22:02:40.692Z,101258.97
2022-08-22T22:05:17.989Z,101258.41
2022-08-22T22:07:47.296Z,101257.88
2022-08-22T22:10:19.052Z,101258.19
2022-08-22T22:12:49.327Z,101257.63
2022-08-22T22:15:22.760Z,101255.91
2022-08-22T22:17:50.368Z,101259.88
2022-08-22T22:20:21.827Z,101262.16
2022-08-22T22:22:50.822Z,101260.75
2022-08-22T22:25:39.954Z,101259.34
2022-08-22T22:28:15.346Z,101262.53
2022-08-22T22:30:44.496Z,101256.72
2022-08-22T22:33:12.020Z,101248.19
2022-08-22T22:35:40.820Z,101252.13
2022-08-22T22:38:11.503Z,101263.28
2022-08-22T22:40:38.803Z,101260.25
2022-08-22T22:43:05.936Z,101261.50
2022-08-22T22:45:33.367Z,101261.03
2022-08-22T22:48:01.623Z,101260.47
2022-08-22T22:50:28.867Z,101266.03
2022-08-22T22:52:55.976Z,101259.16
2022-08-22T22:55:24.638Z,101264.69
2022-08-22T22:57:58.461Z,101263.00
2022-08-22T23:00:29.129Z,101258.91
2022-08-22T23:03:01.172Z,101263.50
2022-08-22T23:05:33.137Z,101259.28
2022-08-22T23:08:00.952Z,101253.38
2022-08-22T23:10:31.747Z,101262.44
2022-08-22T23:12:59.433Z,101263.72
2022-08-22T23:15:27.708Z,101263.03
2022-08-22T23:17:55.112Z,101262.38
2022-08-22T23:20:22.620Z,101262.59
2022-08-22T23:22:50.234Z,101256.47
2022-08-22T23:25:17.434Z,101262.78
2022-08-22T23:27:44.575Z,101262.25
2022-08-22T23:30:15.986Z,101259.09
2022-08-22T23:32:43.139Z,101261.28
2022-08-22T23:35:10.157Z,101257.00
2022-08-22T23:37:38.300Z,101259.78
2022-08-22T23:40:08.461Z,101259.28
2022-08-22T23:42:35.629Z,101271.22
2022-08-22T23:45:03.386Z,101264.44
2022-08-22T23:47:30.532Z,101264.72
2022-08-22T23:49:57.588Z,101263.28
2022-08-22T23:52:25.224Z,101265.28
2022-08-22T23:54:55.686Z,101262.88
2022-08-22T23:57:27.425Z,101260.41
2022-08-22T23:59:58.440Z,101258.78
